Terminal Aerodrome Forecast
Issued by NWS

Home | Current Version | Previous Version | Text Only | Print | Product List | Glossary On
Versions: 1 2 3 4 5 6 7 8 9 10 11 12 13 14 15 16 17 18 19 20 21 22 23 24 25 26 27 28 29 30 31 32 33 34 35 36 37 38 39 40 41 42 43 44 45 46 47 48 49 50
161
FTUS42 KMFL 242101 AAA
TAFTMB
TAF AMD
KTMB 242101Z 2421/2518 25006KT P6SM SCT040
     FM242300 VRB04KT P6SM SCT040
     FM250600 VRB02KT 5SM BR SCT005
      TEMPO 2508/2512 2SM BR BKN005
     FM251400 28005KT P6SM SCT030=

USA.gov is the U.S. government's official web portal to all federal, state and local government web resources and services.